createdAt,value
2022-12-24T00:01:06.559Z,7.83
2022-12-24T00:03:34.282Z,6.97
2022-12-24T00:06:04.905Z,6.00
2022-12-24T00:08:31.852Z,6.33
2022-12-24T00:11:00.120Z,7.67
2022-12-24T00:13:27.163Z,6.27
2022-12-24T00:15:54.065Z,5.70
2022-12-24T00:18:20.978Z,6.10
2022-12-24T00:20:49.274Z,5.50
2022-12-24T00:23:17.234Z,7.70
2022-12-24T00:25:45.447Z,8.03
2022-12-24T00:28:15.295Z,6.77
2022-12-24T00:30:43.424Z,6.57
2022-12-24T00:33:10.723Z,5.40
2022-12-24T00:35:40.296Z,5.63
2022-12-24T00:38:08.486Z,5.83
2022-12-24T00:40:36.055Z,6.27
2022-12-24T00:43:03.403Z,6.30
2022-12-24T00:45:31.609Z,8.63
2022-12-24T00:47:58.646Z,7.00
2022-12-24T00:50:25.545Z,5.93
2022-12-24T00:52:52.415Z,5.77
2022-12-24T00:55:20.041Z,5.23
2022-12-24T00:57:47.003Z,5.73
2022-12-24T01:00:17.385Z,6.73
2022-12-24T01:02:46.005Z,6.47
2022-12-24T01:05:13.364Z,5.77
2022-12-24T01:07:44.726Z,6.10
2022-12-24T01:10:14.405Z,6.03
2022-12-24T01:12:41.432Z,6.07
2022-12-24T01:15:11.864Z,6.00
2022-12-24T01:17:39.654Z,5.77
2022-12-24T01:20:14.555Z,7.33
2022-12-24T01:22:41.824Z,5.17
2022-12-24T01:25:09.765Z,5.07
2022-12-24T01:27:36.909Z,5.23
2022-12-24T01:30:05.470Z,6.10
2022-12-24T01:32:32.372Z,5.87
2022-12-24T01:34:59.859Z,5.30
2022-12-24T01:37:28.142Z,5.80
2022-12-24T01:40:15.026Z,5.40
2022-12-24T01:43:06.638Z,4.33
2022-12-24T01:45:55.935Z,5.67
2022-12-24T01:48:34.762Z,6.30
2022-12-24T01:51:08.993Z,4.77
2022-12-24T01:53:42.522Z,4.60
2022-12-24T01:56:11.614Z,6.63
2022-12-24T01:58:43.346Z,6.03
2022-12-24T02:01:10.486Z,4.80
2022-12-24T02:03:37.835Z,4.63
2022-12-24T02:06:06.341Z,4.80
2022-12-24T02:08:40.022Z,5.80
2022-12-24T02:11:14.794Z,5.77
2022-12-24T02:13:45.050Z,5.10
2022-12-24T02:16:32.412Z,5.27
2022-12-24T02:19:21.635Z,4.93
2022-12-24T02:21:59.717Z,5.07
2022-12-24T02:25:04.866Z,5.10
2022-12-24T02:27:54.487Z,4.63
2022-12-24T02:30:28.075Z,4.83
2022-12-24T02:33:20.347Z,5.23
2022-12-24T02:35:56.012Z,5.17
2022-12-24T02:38:30.914Z,5.13
2022-12-24T02:41:03.811Z,5.30
2022-12-24T02:43:38.380Z,4.53
2022-12-24T02:46:13.716Z,4.77
2022-12-24T02:48:44.415Z,5.10
2022-12-24T02:51:12.168Z,5.13
2022-12-24T02:53:40.303Z,4.17
2022-12-24T02:56:34.739Z,5.63
2022-12-24T02:59:28.650Z,4.40
2022-12-24T03:02:11.663Z,4.50
2022-12-24T03:04:55.263Z,4.40
2022-12-24T03:07:29.524Z,4.40
2022-12-24T03:10:12.120Z,3.90
2022-12-24T03:12:44.942Z,3.73
2022-12-24T03:15:17.355Z,3.80
2022-12-24T03:17:49.798Z,5.57
2022-12-24T03:20:25.562Z,3.97
2022-12-24T03:22:52.885Z,4.13
2022-12-24T03:25:24.066Z,3.17
2022-12-24T03:27:52.028Z,3.63
2022-12-24T03:30:20.120Z,4.33
2022-12-24T03:32:48.370Z,3.70
2022-12-24T03:35:15.371Z,3.77
2022-12-24T03:37:42.296Z,3.47
2022-12-24T03:40:10.439Z,3.90
2022-12-24T03:42:37.619Z,3.60
2022-12-24T03:45:05.945Z,3.43
2022-12-24T03:47:32.813Z,2.67
2022-12-24T03:50:01.147Z,3.40
2022-12-24T03:52:28.530Z,3.43
2022-12-24T03:54:55.415Z,3.30
2022-12-24T03:57:22.309Z,3.40
2022-12-24T03:59:49.249Z,3.63
2022-12-24T04:02:16.707Z,4.40
2022-12-24T04:04:43.782Z,4.70
2022-12-24T04:07:12.083Z,4.40
2022-12-24T04:09:40.488Z,3.70
2022-12-24T04:12:08.069Z,3.47
2022-12-24T04:14:34.965Z,3.50
2022-12-24T04:17:01.924Z,3.50
2022-12-24T04:19:29.257Z,3.07
2022-12-24T04:21:56.250Z,4.00
2022-12-24T04:24:24.624Z,4.23
2022-12-24T04:26:51.604Z,3.93
2022-12-24T04:29:18.460Z,3.80
2022-12-24T04:31:45.439Z,4.10
2022-12-24T04:34:12.345Z,4.50
2022-12-24T04:36:39.188Z,3.80
2022-12-24T04:39:06.055Z,4.07
2022-12-24T04:41:34.509Z,4.37
2022-12-24T04:44:01.387Z,3.70
2022-12-24T04:46:32.500Z,4.73
2022-12-24T04:49:00.628Z,4.27
2022-12-24T04:51:28.856Z,3.87
2022-12-24T04:53:57.149Z,4.30
2022-12-24T04:56:26.865Z,7.47
2022-12-24T04:58:55.989Z,7.40
2022-12-24T05:01:26.823Z,6.33
2022-12-24T05:03:55.314Z,5.17
2022-12-24T05:06:25.084Z,6.40
2022-12-24T05:08:55.669Z,7.63
2022-12-24T05:11:23.334Z,7.53
2022-12-24T05:13:50.636Z,9.20
2022-12-24T05:16:22.125Z,9.10
2022-12-24T05:18:49.404Z,10.53
2022-12-24T05:21:19.875Z,10.20
2022-12-24T05:24:05.143Z,13.33
2022-12-24T05:26:36.959Z,11.50
2022-12-24T05:29:05.837Z,11.80
2022-12-24T05:31:34.477Z,10.60
2022-12-24T05:34:03.095Z,10.57
2022-12-24T05:36:30.712Z,12.30
2022-12-24T05:38:58.005Z,11.10
2022-12-24T05:41:25.963Z,12.83
2022-12-24T05:43:52.909Z,14.23
2022-12-24T05:46:23.279Z,11.93
2022-12-24T05:48:52.967Z,12.93
2022-12-24T05:51:22.426Z,16.80
2022-12-24T05:53:50.872Z,11.80
2022-12-24T05:56:20.939Z,12.23
2022-12-24T05:58:48.182Z,14.63
2022-12-24T06:01:16.151Z,14.13
2022-12-24T06:03:43.185Z,16.60
2022-12-24T06:06:14.588Z,11.30
2022-12-24T06:08:42.591Z,13.63
2022-12-24T06:11:13.148Z,11.50
2022-12-24T06:13:41.930Z,10.83
2022-12-24T06:16:12.017Z,12.67
2022-12-24T06:18:39.438Z,9.03
2022-12-24T06:21:07.543Z,10.07
2022-12-24T06:23:39.624Z,8.67
2022-12-24T06:26:08.020Z,10.80
2022-12-24T06:28:37.681Z,8.93
2022-12-24T06:31:07.141Z,9.37
2022-12-24T06:33:34.709Z,12.13
2022-12-24T06:36:02.069Z,11.03
2022-12-24T06:38:31.129Z,13.97
2022-12-24T06:41:00.045Z,11.30
2022-12-24T06:43:26.920Z,9.17
2022-12-24T06:45:53.793Z,10.20
2022-12-24T06:48:20.651Z,10.97
2022-12-24T06:50:47.749Z,15.23
2022-12-24T06:53:14.635Z,13.00
2022-12-24T06:55:41.647Z,13.97
2022-12-24T06:58:09.957Z,10.83
2022-12-24T07:00:36.985Z,10.60
2022-12-24T07:03:04.244Z,12.67
2022-12-24T07:05:31.178Z,14.80
2022-12-24T07:07:58.038Z,14.53
2022-12-24T07:10:24.988Z,19.37
2022-12-24T07:12:51.882Z,18.67
2022-12-24T07:15:20.241Z,14.73
2022-12-24T07:17:47.176Z,13.43
2022-12-24T07:20:15.285Z,16.67
2022-12-24T07:22:42.792Z,15.00
2022-12-24T07:25:11.432Z,13.70
2022-12-24T07:27:39.195Z,13.83
2022-12-24T07:30:08.696Z,16.57
2022-12-24T07:32:36.916Z,13.67
2022-12-24T07:35:04.596Z,18.10
2022-12-24T07:37:31.473Z,15.67
2022-12-24T07:39:58.361Z,14.07
2022-12-24T07:42:26.519Z,14.73
2022-12-24T07:44:53.429Z,18.23
2022-12-24T07:47:20.272Z,19.53
2022-12-24T07:49:48.491Z,12.10
2022-12-24T07:52:16.094Z,14.90
2022-12-24T07:54:43.004Z,11.53
2022-12-24T07:57:10.063Z,9.87
2022-12-24T07:59:36.967Z,14.80
2022-12-24T08:02:04.102Z,18.13
2022-12-24T08:04:32.307Z,13.00
2022-12-24T08:07:00.520Z,16.03
2022-12-24T08:09:27.404Z,13.00
2022-12-24T08:11:54.244Z,15.90
2022-12-24T08:14:21.329Z,17.87
2022-12-24T08:16:48.244Z,18.43
2022-12-24T08:19:16.544Z,15.67
2022-12-24T08:21:43.451Z,15.53
2022-12-24T08:24:11.682Z,13.23
2022-12-24T08:26:38.692Z,15.20
2022-12-24T08:29:06.855Z,16.30
2022-12-24T08:31:36.467Z,17.87
2022-12-24T08:34:04.095Z,17.97
2022-12-24T08:36:31.045Z,17.43
2022-12-24T08:38:58.180Z,19.47
2022-12-24T08:41:26.492Z,20.37
2022-12-24T08:43:53.364Z,14.27
2022-12-24T08:46:20.272Z,17.73
2022-12-24T08:48:47.454Z,14.87
2022-12-24T08:51:14.426Z,15.80
2022-12-24T08:53:41.571Z,21.37
2022-12-24T08:56:10.297Z,22.20
2022-12-24T08:58:38.946Z,16.63
2022-12-24T09:01:13.773Z,17.80
2022-12-24T09:03:41.649Z,14.33
2022-12-24T09:06:09.966Z,21.87
2022-12-24T09:08:37.967Z,16.87
2022-12-24T09:11:06.683Z,19.37
2022-12-24T09:13:34.128Z,24.23
2022-12-24T09:16:03.387Z,17.23
2022-12-24T09:18:31.317Z,22.90
2022-12-24T09:21:02.810Z,22.77
2022-12-24T09:23:30.773Z,18.20
2022-12-24T09:25:57.994Z,24.50
2022-12-24T09:28:25.049Z,17.20
2022-12-24T09:30:58.145Z,20.90
2022-12-24T09:33:27.553Z,19.03
2022-12-24T09:35:54.924Z,18.63
2022-12-24T09:38:22.906Z,24.03
2022-12-24T09:40:51.962Z,20.67
2022-12-24T09:43:21.737Z,18.23
2022-12-24T09:46:06.324Z,17.90
2022-12-24T09:48:39.652Z,22.53
2022-12-24T09:51:10.375Z,19.63
2022-12-24T09:53:43.714Z,20.33
2022-12-24T09:56:17.277Z,23.77
2022-12-24T09:58:48.689Z,18.97
2022-12-24T10:01:18.203Z,13.60
2022-12-24T10:03:47.417Z,18.10
2022-12-24T10:06:26.831Z,18.67
2022-12-24T10:09:15.630Z,13.43
2022-12-24T10:11:53.911Z,18.70
2022-12-24T10:14:38.505Z,23.87
2022-12-24T10:17:27.531Z,21.40
2022-12-24T10:20:13.133Z,19.23
2022-12-24T10:22:59.133Z,19.40
2022-12-24T10:25:33.993Z,19.13
2022-12-24T10:28:03.739Z,18.77
2022-12-24T10:30:30.652Z,17.27
2022-12-24T10:32:57.590Z,14.30
2022-12-24T10:35:32.222Z,17.07
2022-12-24T10:37:59.137Z,18.53
2022-12-24T10:40:35.779Z,15.70
2022-12-24T10:43:13.620Z,16.83
2022-12-24T10:45:46.411Z,21.97
2022-12-24T10:48:25.574Z,16.60
2022-12-24T10:51:02.715Z,19.77
2022-12-24T10:53:41.682Z,19.83
2022-12-24T10:56:13.649Z,17.17
2022-12-24T10:58:45.438Z,13.80
2022-12-24T11:01:13.695Z,23.87
2022-12-24T11:03:42.339Z,18.17
2022-12-24T11:06:13.310Z,22.70
2022-12-24T11:08:44.222Z,16.70
2022-12-24T11:11:16.390Z,17.33
2022-12-24T11:13:52.301Z,14.50
2022-12-24T11:16:26.445Z,17.90
2022-12-24T11:18:57.549Z,17.27
2022-12-24T11:21:29.696Z,14.37
2022-12-24T11:23:59.886Z,17.20
2022-12-24T11:26:30.520Z,17.20
2022-12-24T11:29:16.857Z,16.33
2022-12-24T11:31:46.030Z,16.13
2022-12-24T11:34:26.127Z,15.53
2022-12-24T11:37:14.136Z,15.13
2022-12-24T11:39:47.271Z,13.30
2022-12-24T11:42:30.993Z,17.60
2022-12-24T11:45:02.229Z,14.90
2022-12-24T11:47:35.437Z,18.73
2022-12-24T11:50:25.579Z,18.23
2022-12-24T11:53:04.894Z,17.33
2022-12-24T11:55:44.517Z,21.63
2022-12-24T11:58:25.741Z,20.43
2022-12-24T12:01:02.837Z,22.93
2022-12-24T12:03:38.212Z,18.17
2022-12-24T12:06:23.832Z,19.80
2022-12-24T12:08:58.947Z,17.10
2022-12-24T12:11:28.856Z,20.93
2022-12-24T12:13:59.953Z,18.80
2022-12-24T12:16:55.357Z,15.47
2022-12-24T12:19:25.713Z,17.10
2022-12-24T12:21:52.798Z,20.17
2022-12-24T12:24:32.293Z,19.13
2022-12-24T12:27:12.855Z,17.07
2022-12-24T12:29:46.959Z,22.40
2022-12-24T12:32:26.025Z,17.17
2022-12-24T12:35:04.031Z,18.13
2022-12-24T12:37:38.136Z,17.23
2022-12-24T12:40:15.205Z,19.80
2022-12-24T12:42:57.870Z,15.07
2022-12-24T12:45:43.701Z,17.00
2022-12-24T12:48:33.946Z,16.93
2022-12-24T12:51:10.947Z,20.33
2022-12-24T12:53:59.166Z,24.20
2022-12-24T12:56:33.103Z,14.97
2022-12-24T12:59:08.150Z,17.83
2022-12-24T13:01:46.828Z,15.37
2022-12-24T13:05:00.634Z,15.27
2022-12-24T13:08:04.614Z,18.37
2022-12-24T13:11:00.572Z,14.60
2022-12-24T13:13:53.918Z,17.80
2022-12-24T13:16:46.888Z,15.37
2022-12-24T13:19:47.081Z,14.77
2022-12-24T13:22:17.597Z,13.60
2022-12-24T13:24:52.046Z,10.90
2022-12-24T13:27:24.942Z,10.50
2022-12-24T13:30:06.949Z,11.90
2022-12-24T13:32:55.124Z,11.67
2022-12-24T13:35:38.725Z,10.67
2022-12-24T13:38:43.381Z,13.07
2022-12-24T13:41:58.415Z,10.73
2022-12-24T13:44:32.650Z,15.03
2022-12-24T13:47:25.441Z,11.50
2022-12-24T13:49:58.763Z,11.53
2022-12-24T13:52:30.797Z,12.20
2022-12-24T13:55:14.686Z,13.67
2022-12-24T13:57:52.261Z,13.00
2022-12-24T14:00:34.534Z,11.07
2022-12-24T14:03:31.333Z,12.50
2022-12-24T14:06:02.678Z,14.80
2022-12-24T14:08:37.535Z,12.00
2022-12-24T14:11:12.536Z,12.50
2022-12-24T14:14:12.131Z,11.17
2022-12-24T14:16:47.602Z,12.17
2022-12-24T14:19:21.278Z,13.43
2022-12-24T14:21:57.903Z,9.27
2022-12-24T14:24:30.892Z,12.03
2022-12-24T14:27:06.346Z,8.13
2022-12-24T14:29:42.655Z,13.20
2022-12-24T14:32:16.089Z,13.77
2022-12-24T14:34:44.646Z,12.20
2022-12-24T14:37:13.913Z,11.40
2022-12-24T14:39:47.892Z,14.03
2022-12-24T14:42:35.980Z,12.50
2022-12-24T14:45:18.147Z,11.23
2022-12-24T14:47:56.384Z,14.77
2022-12-24T14:50:46.045Z,14.97
2022-12-24T14:53:34.705Z,13.20
2022-12-24T14:56:14.454Z,12.70
2022-12-24T14:58:44.158Z,15.77
2022-12-24T15:01:25.139Z,12.40
2022-12-24T15:04:04.471Z,11.53
2022-12-24T15:06:37.808Z,13.07
2022-12-24T15:09:05.818Z,13.73
2022-12-24T15:11:32.870Z,14.10
2022-12-24T15:14:00.634Z,11.53
2022-12-24T15:16:34.172Z,13.57
2022-12-24T15:19:06.045Z,10.60
2022-12-24T15:21:41.098Z,12.97
2022-12-24T15:24:25.876Z,14.13
2022-12-24T15:26:52.958Z,15.13
2022-12-24T15:29:24.663Z,15.53
2022-12-24T15:31:57.944Z,15.60
2022-12-24T15:34:30.242Z,12.20
2022-12-24T15:37:12.319Z,16.23
2022-12-24T15:39:40.853Z,13.47
2022-12-24T15:42:14.648Z,12.17
2022-12-24T15:44:49.494Z,15.07
2022-12-24T15:47:21.442Z,14.90
2022-12-24T15:49:52.371Z,18.97
2022-12-24T15:52:24.855Z,10.53
2022-12-24T15:54:57.797Z,13.77
2022-12-24T15:57:30.823Z,13.27
2022-12-24T16:00:00.300Z,12.80
2022-12-24T16:02:39.643Z,14.70
2022-12-24T16:05:35.644Z,9.73
2022-12-24T16:08:26.103Z,13.23
2022-12-24T16:11:11.570Z,16.77
2022-12-24T16:13:41.301Z,14.63
2022-12-24T16:16:12.595Z,9.07
2022-12-24T16:18:51.533Z,11.93
2022-12-24T16:21:24.195Z,9.83
2022-12-24T16:23:55.797Z,10.87
2022-12-24T16:26:23.061Z,9.60
2022-12-24T16:28:50.118Z,10.90
2022-12-24T16:31:19.484Z,11.13
2022-12-24T16:33:46.941Z,10.33
2022-12-24T16:36:14.524Z,11.30
2022-12-24T16:38:59.863Z,10.87
2022-12-24T16:41:28.098Z,10.97
2022-12-24T16:43:55.026Z,15.47
2022-12-24T16:46:21.983Z,13.00
2022-12-24T16:48:49.528Z,13.97
2022-12-24T16:51:16.467Z,11.63
2022-12-24T16:53:43.378Z,8.50
2022-12-24T16:56:10.257Z,12.60
2022-12-24T16:58:38.603Z,12.07
2022-12-24T17:01:09.726Z,13.43
2022-12-24T17:03:37.254Z,16.03
2022-12-24T17:06:06.352Z,17.67
2022-12-24T17:08:33.298Z,15.37
2022-12-24T17:11:00.231Z,16.03
2022-12-24T17:13:27.132Z,14.00
2022-12-24T17:15:55.379Z,12.50
2022-12-24T17:18:22.355Z,12.90
2022-12-24T17:20:58.525Z,11.90
2022-12-24T17:23:25.749Z,10.33
2022-12-24T17:25:52.709Z,12.87
2022-12-24T17:28:19.624Z,19.97
2022-12-24T17:30:46.598Z,9.93
2022-12-24T17:33:15.238Z,14.20
2022-12-24T17:35:43.698Z,14.67
2022-12-24T17:38:10.561Z,13.70
2022-12-24T17:40:37.452Z,12.10
2022-12-24T17:43:04.432Z,11.03
2022-12-24T17:45:31.441Z,11.50
2022-12-24T17:47:58.322Z,9.17
2022-12-24T17:50:26.687Z,12.73
2022-12-24T17:52:53.608Z,11.47
2022-12-24T17:55:22.435Z,8.20
2022-12-24T17:57:49.328Z,7.03
2022-12-24T18:00:18.093Z,11.37
2022-12-24T18:02:45.128Z,8.37
2022-12-24T18:05:12.067Z,8.83
2022-12-24T18:07:40.338Z,9.57
2022-12-24T18:10:09.345Z,10.20
2022-12-24T18:12:36.256Z,8.77
2022-12-24T18:15:03.453Z,8.97
2022-12-24T18:17:30.370Z,8.87
2022-12-24T18:19:57.505Z,8.37
2022-12-24T18:22:24.457Z,8.87
2022-12-24T18:24:52.950Z,9.03
2022-12-24T18:27:19.865Z,7.40
2022-12-24T18:29:46.752Z,16.27
2022-12-24T18:32:16.759Z,11.90
2022-12-24T18:34:43.763Z,15.13
2022-12-24T18:37:10.674Z,9.70
2022-12-24T18:39:37.575Z,10.27
2022-12-24T18:42:05.919Z,14.60
2022-12-24T18:44:32.807Z,9.40
2022-12-24T18:46:59.870Z,8.67
2022-12-24T18:49:27.116Z,9.33
2022-12-24T18:51:54.027Z,10.60
2022-12-24T18:54:20.981Z,10.93
2022-12-24T18:56:51.310Z,12.80
2022-12-24T18:59:19.539Z,12.03
2022-12-24T19:01:46.765Z,12.27
2022-12-24T19:04:15.010Z,11.00
2022-12-24T19:06:45.836Z,11.37
2022-12-24T19:09:16.214Z,12.97
2022-12-24T19:11:43.087Z,12.03
2022-12-24T19:14:12.986Z,15.40
2022-12-24T19:16:41.483Z,7.30
2022-12-24T19:19:11.292Z,11.83
2022-12-24T19:21:38.295Z,14.47
2022-12-24T19:24:10.254Z,11.63
2022-12-24T19:26:37.852Z,8.23
2022-12-24T19:29:04.853Z,13.70
2022-12-24T19:31:32.449Z,10.03
2022-12-24T19:34:00.825Z,12.30
2022-12-24T19:36:30.506Z,12.50
2022-12-24T19:38:58.967Z,13.60
2022-12-24T19:41:28.666Z,14.33
2022-12-24T19:43:58.188Z,8.73
2022-12-24T19:46:28.416Z,14.83
2022-12-24T19:48:58.185Z,12.07
2022-12-24T19:51:28.708Z,12.37
2022-12-24T19:53:57.120Z,13.03
2022-12-24T19:56:27.527Z,15.53
2022-12-24T19:58:55.470Z,14.57
2022-12-24T20:01:25.501Z,14.10
2022-12-24T20:03:53.898Z,13.73
2022-12-24T20:06:24.091Z,14.20
2022-12-24T20:08:52.697Z,16.10
2022-12-24T20:11:22.126Z,14.90
2022-12-24T20:13:48.996Z,11.97
2022-12-24T20:16:20.953Z,15.53
2022-12-24T20:18:52.077Z,15.63
2022-12-24T20:21:19.362Z,16.70
2022-12-24T20:23:46.675Z,13.77
2022-12-24T20:26:17.869Z,14.70
2022-12-24T20:28:45.814Z,17.43
2022-12-24T20:31:16.180Z,17.97
2022-12-24T20:33:44.303Z,12.73
2022-12-24T20:36:12.373Z,20.57
2022-12-24T20:38:39.929Z,14.70
2022-12-24T20:41:09.540Z,14.97
2022-12-24T20:43:45.015Z,15.20
2022-12-24T20:46:14.414Z,17.90
2022-12-24T20:48:41.754Z,14.47
2022-12-24T20:51:19.351Z,13.67
2022-12-24T20:53:51.133Z,11.70
2022-12-24T20:56:18.617Z,16.40
2022-12-24T20:58:46.943Z,15.10
2022-12-24T21:01:17.863Z,15.70
2022-12-24T21:03:45.456Z,14.23
2022-12-24T21:06:13.705Z,15.97
2022-12-24T21:08:40.573Z,17.60
2022-12-24T21:11:33.047Z,19.63
2022-12-24T21:14:01.992Z,16.77
2022-12-24T21:16:30.894Z,11.63
2022-12-24T21:18:58.043Z,14.27
2022-12-24T21:21:25.210Z,13.80
2022-12-24T21:23:52.583Z,16.90
2022-12-24T21:26:19.634Z,15.07
2022-12-24T21:28:46.655Z,22.77
2022-12-24T21:31:15.577Z,22.33
2022-12-24T21:33:42.934Z,16.83
2022-12-24T21:36:11.808Z,15.80
2022-12-24T21:38:39.107Z,13.50
2022-12-24T21:41:08.928Z,18.43
2022-12-24T21:43:37.444Z,15.50
2022-12-24T21:46:07.879Z,20.80
2022-12-24T21:48:55.467Z,16.27
2022-12-24T21:51:23.822Z,15.17
2022-12-24T21:54:09.689Z,26.60
2022-12-24T21:56:56.281Z,15.17
2022-12-24T21:59:26.850Z,20.10
2022-12-24T22:01:55.121Z,13.90
2022-12-24T22:04:24.063Z,19.30
2022-12-24T22:07:09.761Z,21.77
2022-12-24T22:09:57.056Z,13.87
2022-12-24T22:12:25.039Z,16.60
2022-12-24T22:14:52.020Z,18.50
2022-12-24T22:17:24.726Z,17.33
2022-12-24T22:19:53.959Z,17.97
2022-12-24T22:22:21.630Z,13.93
2022-12-24T22:24:48.618Z,15.37
2022-12-24T22:27:15.565Z,14.10
2022-12-24T22:29:42.498Z,21.90
2022-12-24T22:32:09.592Z,15.13
2022-12-24T22:34:36.635Z,17.60
2022-12-24T22:37:04.872Z,15.47
2022-12-24T22:39:31.833Z,14.23
2022-12-24T22:41:58.713Z,12.93
2022-12-24T22:44:25.786Z,15.20
2022-12-24T22:46:52.816Z,17.23
2022-12-24T22:49:19.778Z,19.47
2022-12-24T22:51:46.709Z,18.37
2022-12-24T22:54:15.841Z,14.70
2022-12-24T22:56:42.998Z,22.87
2022-12-24T22:59:13.767Z,20.10
2022-12-24T23:01:43.747Z,16.53
2022-12-24T23:04:12.425Z,21.57
2022-12-24T23:06:39.952Z,19.77
2022-12-24T23:09:10.541Z,21.20
2022-12-24T23:11:39.431Z,18.93
2022-12-24T23:14:25.178Z,21.57
2022-12-24T23:16:52.125Z,20.83
2022-12-24T23:19:19.025Z,21.37
2022-12-24T23:21:45.930Z,20.63
2022-12-24T23:24:12.965Z,19.20
2022-12-24T23:26:41.228Z,17.20
2022-12-24T23:29:08.135Z,24.70
2022-12-24T23:31:35.238Z,21.77
2022-12-24T23:34:02.232Z,18.67
2022-12-24T23:36:29.751Z,23.07
2022-12-24T23:38:57.520Z,19.17
2022-12-24T23:41:24.511Z,20.30
2022-12-24T23:43:53.177Z,16.07
2022-12-24T23:46:21.126Z,28.27
2022-12-24T23:48:48.785Z,22.27
2022-12-24T23:51:19.839Z,16.73
2022-12-24T23:53:46.783Z,24.07
2022-12-24T23:56:13.887Z,17.37
2022-12-24T23:58:42.470Z,21.07
